sensor_id;sensor_type;location;lat;lon;timestamp;pressure;altitude;pressure_sealevel;temperature;humidity
59168;BME280;44948;55.046;73.266;2023-03-18T00:02:01;101085.28;;;-10.20;77.73
59168;BME280;44948;55.046;73.266;2023-03-18T00:05:05;101086.28;;;-10.13;78.35
59168;BME280;44948;55.046;73.266;2023-03-18T00:08:08;101082.91;;;-10.14;77.84
59168;BME280;44948;55.046;73.266;2023-03-18T00:11:19;101070.66;;;-10.28;78.01
59168;BME280;44948;55.046;73.266;2023-03-18T00:14:25;101092.84;;;-10.21;78.39
59168;BME280;44948;55.046;73.266;2023-03-18T00:17:27;101063.97;;;-10.26;78.48
59168;BME280;44948;55.046;73.266;2023-03-18T00:20:35;101082.94;;;-10.12;78.31
59168;BME280;44948;55.046;73.266;2023-03-18T00:23:40;101068.75;;;-10.05;78.78
59168;BME280;44948;55.046;73.266;2023-03-18T00:26:43;101062.72;;;-10.09;78.25
59168;BME280;44948;55.046;73.266;2023-03-18T00:29:46;101056.09;;;-10.04;78.40
59168;BME280;44948;55.046;73.266;2023-03-18T00:32:59;101051.56;;;-10.16;78.66
59168;BME280;44948;55.046;73.266;2023-03-18T00:36:01;101053.34;;;-10.12;78.77
59168;BME280;44948;55.046;73.266;2023-03-18T00:39:03;101049.19;;;-10.08;78.89
59168;BME280;44948;55.046;73.266;2023-03-18T00:42:06;101053.34;;;-10.12;78.72
59168;BME280;44948;55.046;73.266;2023-03-18T00:45:11;101056.72;;;-10.13;78.68
59168;BME280;44948;55.046;73.266;2023-03-18T00:48:14;101055.03;;;-10.12;79.08
59168;BME280;44948;55.046;73.266;2023-03-18T00:51:18;101041.59;;;-10.08;79.07
59168;BME280;44948;55.046;73.266;2023-03-18T00:54:26;101033.88;;;-10.13;78.95
59168;BME280;44948;55.046;73.266;2023-03-18T00:57:29;101043.13;;;-10.15;78.74
59168;BME280;44948;55.046;73.266;2023-03-18T01:00:31;101048.19;;;-10.15;79.10
59168;BME280;44948;55.046;73.266;2023-03-18T01:03:35;101041.66;;;-10.06;79.01
59168;BME280;44948;55.046;73.266;2023-03-18T01:06:43;101036.59;;;-10.06;79.04
59168;BME280;44948;55.046;73.266;2023-03-18T01:09:50;101011.06;;;-10.11;79.49
59168;BME280;44948;55.046;73.266;2023-03-18T01:12:53;101025.00;;;-9.95;79.36
59168;BME280;44948;55.046;73.266;2023-03-18T01:15:55;101016.00;;;-9.83;79.39
59168;BME280;44948;55.046;73.266;2023-03-18T01:19:02;101002.41;;;-9.86;79.56
59168;BME280;44948;55.046;73.266;2023-03-18T01:22:05;101012.94;;;-9.69;79.38
59168;BME280;44948;55.046;73.266;2023-03-18T01:25:15;101004.69;;;-9.59;79.38
59168;BME280;44948;55.046;73.266;2023-03-18T01:28:22;101007.34;;;-9.55;79.37
59168;BME280;44948;55.046;73.266;2023-03-18T01:31:26;100990.59;;;-9.46;79.14
59168;BME280;44948;55.046;73.266;2023-03-18T01:34:34;100995.06;;;-9.36;79.21
59168;BME280;44948;55.046;73.266;2023-03-18T01:37:37;100975.69;;;-9.28;79.01
59168;BME280;44948;55.046;73.266;2023-03-18T01:40:47;100987.28;;;-9.00;78.98
59168;BME280;44948;55.046;73.266;2023-03-18T01:43:59;100990.13;;;-8.86;78.72
59168;BME280;44948;55.046;73.266;2023-03-18T01:47:04;100986.81;;;-8.81;78.75
59168;BME280;44948;55.046;73.266;2023-03-18T01:50:09;100998.06;;;-8.70;78.97
59168;BME280;44948;55.046;73.266;2023-03-18T01:53:14;101008.47;;;-8.56;79.08
59168;BME280;44948;55.046;73.266;2023-03-18T01:56:21;101007.78;;;-8.47;79.06
59168;BME280;44948;55.046;73.266;2023-03-18T01:59:27;101001.50;;;-8.21;78.81
59168;BME280;44948;55.046;73.266;2023-03-18T02:02:31;101012.88;;;-7.99;78.41
59168;BME280;44948;55.046;73.266;2023-03-18T02:05:34;101005.72;;;-7.69;78.22
59168;BME280;44948;55.046;73.266;2023-03-18T02:08:38;101000.13;;;-7.43;77.75
59168;BME280;44948;55.046;73.266;2023-03-18T02:11:45;100999.69;;;-7.13;77.80
59168;BME280;44948;55.046;73.266;2023-03-18T02:14:53;100994.00;;;-6.89;77.40
59168;BME280;44948;55.046;73.266;2023-03-18T02:21:22;100976.19;;;-6.86;76.84
59168;BME280;44948;55.046;73.266;2023-03-18T02:27:47;100958.31;;;-6.88;76.63
59168;BME280;44948;55.046;73.266;2023-03-18T02:30:55;100965.16;;;-6.85;76.32
59168;BME280;44948;55.046;73.266;2023-03-18T02:33:59;100972.81;;;-6.85;76.57
59168;BME280;44948;55.046;73.266;2023-03-18T02:37:03;100966.94;;;-6.75;76.87
59168;BME280;44948;55.046;73.266;2023-03-18T02:40:23;100966.88;;;-6.81;76.56
59168;BME280;44948;55.046;73.266;2023-03-18T02:43:30;100967.00;;;-6.70;76.47
59168;BME280;44948;55.046;73.266;2023-03-18T02:49:50;100963.03;;;-6.42;76.53
59168;BME280;44948;55.046;73.266;2023-03-18T02:52:53;100965.56;;;-6.44;76.10
59168;BME280;44948;55.046;73.266;2023-03-18T02:56:09;100963.97;;;-6.31;76.42
59168;BME280;44948;55.046;73.266;2023-03-18T02:59:14;100957.25;;;-6.22;76.42
59168;BME280;44948;55.046;73.266;2023-03-18T03:02:16;100895.78;;;-6.49;75.89
59168;BME280;44948;55.046;73.266;2023-03-18T03:05:30;100950.53;;;-6.13;76.19
59168;BME280;44948;55.046;73.266;2023-03-18T03:08:34;100936.91;;;-6.11;76.12
59168;BME280;44948;55.046;73.266;2023-03-18T03:11:49;100946.44;;;-5.89;75.93
59168;BME280;44948;55.046;73.266;2023-03-18T03:14:57;100906.38;;;-6.00;76.04
59168;BME280;44948;55.046;73.266;2023-03-18T03:18:02;100938.09;;;-5.65;75.74
59168;BME280;44948;55.046;73.266;2023-03-18T03:21:13;100921.94;;;-5.56;76.15
59168;BME280;44948;55.046;73.266;2023-03-18T03:24:18;100934.84;;;-5.35;75.58
59168;BME280;44948;55.046;73.266;2023-03-18T03:27:21;100935.78;;;-5.11;75.84
59168;BME280;44948;55.046;73.266;2023-03-18T03:30:24;100932.44;;;-4.87;75.42
59168;BME280;44948;55.046;73.266;2023-03-18T03:33:27;100924.78;;;-4.74;75.49
59168;BME280;44948;55.046;73.266;2023-03-18T03:36:31;100932.50;;;-4.57;75.06
59168;BME280;44948;55.046;73.266;2023-03-18T03:39:34;100920.59;;;-4.52;75.01
59168;BME280;44948;55.046;73.266;2023-03-18T03:42:37;100924.00;;;-4.28;75.06
59168;BME280;44948;55.046;73.266;2023-03-18T03:45:40;100931.69;;;-4.15;75.04
59168;BME280;44948;55.046;73.266;2023-03-18T03:48:43;100911.19;;;-4.27;75.15
59168;BME280;44948;55.046;73.266;2023-03-18T03:51:47;100927.41;;;-4.11;75.20
59168;BME280;44948;55.046;73.266;2023-03-18T03:54:50;100926.53;;;-4.03;75.38
59168;BME280;44948;55.046;73.266;2023-03-18T03:57:54;100883.88;;;-4.19;75.37
59168;BME280;44948;55.046;73.266;2023-03-18T04:00:59;100920.56;;;-3.82;75.26
59168;BME280;44948;55.046;73.266;2023-03-18T04:04:02;100908.56;;;-3.75;75.49
59168;BME280;44948;55.046;73.266;2023-03-18T04:07:19;100917.09;;;-3.62;74.87
59168;BME280;44948;55.046;73.266;2023-03-18T04:10:21;100911.94;;;-3.55;75.24
59168;BME280;44948;55.046;73.266;2023-03-18T04:13:24;100906.75;;;-3.33;75.28
59168;BME280;44948;55.046;73.266;2023-03-18T04:16:29;100887.03;;;-3.25;75.14
59168;BME280;44948;55.046;73.266;2023-03-18T04:19:32;100904.06;;;-3.09;74.80
59168;BME280;44948;55.046;73.266;2023-03-18T04:22:34;100891.22;;;-3.01;74.85
59168;BME280;44948;55.046;73.266;2023-03-18T04:25:41;100886.88;;;-2.92;74.42
59168;BME280;44948;55.046;73.266;2023-03-18T04:28:43;100885.06;;;-2.76;74.27
59168;BME280;44948;55.046;73.266;2023-03-18T04:31:51;100878.31;;;-2.91;73.96
59168;BME280;44948;55.046;73.266;2023-03-18T04:35:02;100864.66;;;-2.96;74.20
59168;BME280;44948;55.046;73.266;2023-03-18T04:38:05;100893.66;;;-2.82;73.90
59168;BME280;44948;55.046;73.266;2023-03-18T04:41:08;100886.84;;;-2.89;73.95
59168;BME280;44948;55.046;73.266;2023-03-18T04:44:10;100885.13;;;-2.87;74.05
59168;BME280;44948;55.046;73.266;2023-03-18T04:47:19;100872.16;;;-2.64;73.68
59168;BME280;44948;55.046;73.266;2023-03-18T04:50:30;100871.03;;;-2.32;73.10
59168;BME280;44948;55.046;73.266;2023-03-18T04:53:43;100870.56;;;-1.85;72.68
59168;BME280;44948;55.046;73.266;2023-03-18T04:56:47;100846.78;;;-1.28;71.63
59168;BME280;44948;55.046;73.266;2023-03-18T04:59:50;100867.28;;;-0.61;70.41
59168;BME280;44948;55.046;73.266;2023-03-18T05:02:53;100854.78;;;-0.31;68.81
59168;BME280;44948;55.046;73.266;2023-03-18T05:05:59;100842.63;;;-0.25;68.48
59168;BME280;44948;55.046;73.266;2023-03-18T05:09:17;100842.63;;;-0.25;68.59
59168;BME280;44948;55.046;73.266;2023-03-18T05:12:31;100810.34;;;-0.46;68.53
59168;BME280;44948;55.046;73.266;2023-03-18T05:15:33;100840.88;;;-0.24;68.11
59168;BME280;44948;55.046;73.266;2023-03-18T05:18:37;100838.03;;;-0.09;67.83
59168;BME280;44948;55.046;73.266;2023-03-18T05:21:46;100821.06;;;-0.21;67.99
59168;BME280;44948;55.046;73.266;2023-03-18T05:24:54;100819.03;;;-0.03;67.54
59168;BME280;44948;55.046;73.266;2023-03-18T05:28:04;100815.59;;;-0.04;67.19
59168;BME280;44948;55.046;73.266;2023-03-18T05:31:18;100824.81;;;0.09;67.35
59168;BME280;44948;55.046;73.266;2023-03-18T05:34:21;100819.44;;;0.22;67.18
59168;BME280;44948;55.046;73.266;2023-03-18T05:37:24;100815.81;;;0.29;67.15
59168;BME280;44948;55.046;73.266;2023-03-18T05:40:35;100808.91;;;0.31;66.56
59168;BME280;44948;55.046;73.266;2023-03-18T05:43:47;100806.09;;;0.43;66.52
59168;BME280;44948;55.046;73.266;2023-03-18T05:46:50;100804.53;;;0.34;65.94
59168;BME280;44948;55.046;73.266;2023-03-18T05:50:10;100806.06;;;0.44;66.37
59168;BME280;44948;55.046;73.266;2023-03-18T05:53:14;100764.88;;;0.40;66.33
59168;BME280;44948;55.046;73.266;2023-03-18T05:56:19;100801.16;;;0.72;66.05
59168;BME280;44948;55.046;73.266;2023-03-18T05:59:26;100803.97;;;0.62;65.75
59168;BME280;44948;55.046;73.266;2023-03-18T06:02:41;100782.94;;;0.40;65.60
59168;BME280;44948;55.046;73.266;2023-03-18T06:05:49;100782.72;;;0.49;66.24
59168;BME280;44948;55.046;73.266;2023-03-18T06:08:52;100786.56;;;0.71;65.68
59168;BME280;44948;55.046;73.266;2023-03-18T06:12:00;100783.09;;;0.72;65.29
59168;BME280;44948;55.046;73.266;2023-03-18T06:15:08;100777.69;;;0.81;65.14
59168;BME280;44948;55.046;73.266;2023-03-18T06:18:12;100777.34;;;0.97;65.01
59168;BME280;44948;55.046;73.266;2023-03-18T06:21:21;100775.34;;;1.09;64.82
59168;BME280;44948;55.046;73.266;2023-03-18T06:24:24;100772.72;;;1.11;64.39
59168;BME280;44948;55.046;73.266;2023-03-18T06:27:37;100782.84;;;1.20;64.16
59168;BME280;44948;55.046;73.266;2023-03-18T06:30:45;100774.81;;;1.31;63.64
59168;BME280;44948;55.046;73.266;2023-03-18T06:33:53;100783.06;;;1.11;63.41
59168;BME280;44948;55.046;73.266;2023-03-18T06:36:57;100767.47;;;1.14;64.31
59168;BME280;44948;55.046;73.266;2023-03-18T06:40:00;100766.50;;;1.54;64.07
59168;BME280;44948;55.046;73.266;2023-03-18T06:43:03;100756.16;;;1.86;62.78
59168;BME280;44948;55.046;73.266;2023-03-18T06:46:15;100756.03;;;1.91;62.05
59168;BME280;44948;55.046;73.266;2023-03-18T06:49:19;100747.03;;;2.04;62.29
59168;BME280;44948;55.046;73.266;2023-03-18T06:52:29;100757.72;;;2.23;61.55
59168;BME280;44948;55.046;73.266;2023-03-18T06:55:37;100764.69;;;2.21;61.63
59168;BME280;44948;55.046;73.266;2023-03-18T06:58:41;100749.06;;;2.53;61.53
59168;BME280;44948;55.046;73.266;2023-03-18T07:01:45;100749.84;;;2.55;60.93
59168;BME280;44948;55.046;73.266;2023-03-18T07:04:50;100736.09;;;2.53;60.71
59168;BME280;44948;55.046;73.266;2023-03-18T07:07:53;100734.38;;;2.52;60.46
59168;BME280;44948;55.046;73.266;2023-03-18T07:11:06;100719.56;;;2.57;61.04
59168;BME280;44948;55.046;73.266;2023-03-18T07:14:12;100716.69;;;2.67;60.46
59168;BME280;44948;55.046;73.266;2023-03-18T07:17:19;100721.25;;;2.58;60.70
59168;BME280;44948;55.046;73.266;2023-03-18T07:20:21;100706.91;;;2.48;60.72
59168;BME280;44948;55.046;73.266;2023-03-18T07:23:25;100705.84;;;2.26;60.92
59168;BME280;44948;55.046;73.266;2023-03-18T07:26:31;100702.75;;;1.84;62.14
59168;BME280;44948;55.046;73.266;2023-03-18T07:29:39;100700.13;;;1.85;62.47
59168;BME280;44948;55.046;73.266;2023-03-18T07:32:41;100690.31;;;2.26;62.08
59168;BME280;44948;55.046;73.266;2023-03-18T07:35:44;100700.22;;;2.41;61.55
59168;BME280;44948;55.046;73.266;2023-03-18T07:38:51;100679.41;;;2.44;61.29
59168;BME280;44948;55.046;73.266;2023-03-18T07:41:53;100672.44;;;2.46;61.32
59168;BME280;44948;55.046;73.266;2023-03-18T07:45:09;100664.41;;;2.82;60.76
59168;BME280;44948;55.046;73.266;2023-03-18T07:48:11;100667.59;;;2.90;60.70
59168;BME280;44948;55.046;73.266;2023-03-18T07:51:15;100664.56;;;2.77;60.06
59168;BME280;44948;55.046;73.266;2023-03-18T07:54:17;100660.72;;;2.89;60.91
59168;BME280;44948;55.046;73.266;2023-03-18T07:57:26;100656.72;;;3.05;60.07
59168;BME280;44948;55.046;73.266;2023-03-18T08:00:29;100645.25;;;3.12;59.99
59168;BME280;44948;55.046;73.266;2023-03-18T08:03:32;100630.63;;;3.35;59.90
59168;BME280;44948;55.046;73.266;2023-03-18T08:06:34;100627.50;;;3.50;59.53
59168;BME280;44948;55.046;73.266;2023-03-18T08:09:37;100604.72;;;3.10;58.89
59168;BME280;44948;55.046;73.266;2023-03-18T08:12:44;100625.53;;;3.08;59.23
59168;BME280;44948;55.046;73.266;2023-03-18T08:15:47;100617.16;;;3.00;59.81
59168;BME280;44948;55.046;73.266;2023-03-18T08:18:49;100609.19;;;3.06;59.82
59168;BME280;44948;55.046;73.266;2023-03-18T08:21:52;100622.03;;;3.09;59.12
59168;BME280;44948;55.046;73.266;2023-03-18T08:24:55;100614.84;;;2.66;60.06
59168;BME280;44948;55.046;73.266;2023-03-18T08:27:59;100614.88;;;2.65;60.53
59168;BME280;44948;55.046;73.266;2023-03-18T08:31:01;100609.72;;;2.38;60.53
59168;BME280;44948;55.046;73.266;2023-03-18T08:34:05;100614.91;;;2.38;61.07
59168;BME280;44948;55.046;73.266;2023-03-18T08:37:08;100605.59;;;2.59;61.06
59168;BME280;44948;55.046;73.266;2023-03-18T08:40:12;100602.56;;;2.73;60.72
59168;BME280;44948;55.046;73.266;2023-03-18T08:43:16;100591.81;;;2.83;60.59
59168;BME280;44948;55.046;73.266;2023-03-18T08:46:23;100569.44;;;2.81;60.32
59168;BME280;44948;55.046;73.266;2023-03-18T08:49:32;100569.09;;;2.91;60.23
59168;BME280;44948;55.046;73.266;2023-03-18T08:52:34;100574.59;;;3.07;60.07
59168;BME280;44948;55.046;73.266;2023-03-18T08:55:39;100561.19;;;3.19;60.00
59168;BME280;44948;55.046;73.266;2023-03-18T08:58:42;100545.47;;;3.24;59.91
59168;BME280;44948;55.046;73.266;2023-03-18T09:01:49;100540.78;;;3.10;59.34
59168;BME280;44948;55.046;73.266;2023-03-18T09:05:01;100490.06;;;2.80;60.13
59168;BME280;44948;55.046;73.266;2023-03-18T09:08:06;100532.88;;;2.90;59.94
59168;BME280;44948;55.046;73.266;2023-03-18T09:11:09;100529.50;;;2.88;59.53
59168;BME280;44948;55.046;73.266;2023-03-18T09:14:12;100522.41;;;2.93;59.58
59168;BME280;44948;55.046;73.266;2023-03-18T09:17:14;100508.22;;;3.03;59.93
59168;BME280;44948;55.046;73.266;2023-03-18T09:20:17;100511.63;;;3.05;59.72
59168;BME280;44948;55.046;73.266;2023-03-18T09:23:30;100513.84;;;2.91;59.60
59168;BME280;44948;55.046;73.266;2023-03-18T09:26:35;100513.41;;;3.03;59.46
59168;BME280;44948;55.046;73.266;2023-03-18T09:29:37;100502.59;;;3.15;59.63
59168;BME280;44948;55.046;73.266;2023-03-18T09:32:40;100493.00;;;3.17;59.40
59168;BME280;44948;55.046;73.266;2023-03-18T09:35:42;100493.69;;;3.22;59.79
59168;BME280;44948;55.046;73.266;2023-03-18T09:38:45;100485.34;;;3.14;59.14
59168;BME280;44948;55.046;73.266;2023-03-18T09:52:38;100483.91;;;2.82;59.67
59168;BME280;44948;55.046;73.266;2023-03-18T09:55:56;100473.44;;;2.85;60.02
59168;BME280;44948;55.046;73.266;2023-03-18T09:59:02;100468.03;;;2.43;60.40
59168;BME280;44948;55.046;73.266;2023-03-18T10:02:35;100452.88;;;2.57;60.28
59168;BME280;44948;55.046;73.266;2023-03-18T10:06:05;100452.75;;;2.60;60.34
59168;BME280;44948;55.046;73.266;2023-03-18T10:15:51;100433.84;;;2.09;61.09
59168;BME280;44948;55.046;73.266;2023-03-18T10:18:57;100438.06;;;2.11;61.49
59168;BME280;44948;55.046;73.266;2023-03-18T10:25:46;100423.34;;;1.87;62.13
59168;BME280;44948;55.046;73.266;2023-03-18T10:32:58;100419.66;;;1.94;61.69
59168;BME280;44948;55.046;73.266;2023-03-18T10:40:13;100416.78;;;1.77;62.15
59168;BME280;44948;55.046;73.266;2023-03-18T10:43:25;100415.53;;;1.88;62.65
59168;BME280;44948;55.046;73.266;2023-03-18T10:46:40;100394.94;;;1.85;62.58
59168;BME280;44948;55.046;73.266;2023-03-18T10:50:10;100397.63;;;1.82;62.36
59168;BME280;44948;55.046;73.266;2023-03-18T10:53:33;100378.72;;;1.80;62.76
59168;BME280;44948;55.046;73.266;2023-03-18T10:56:40;100352.91;;;1.79;62.96
59168;BME280;44948;55.046;73.266;2023-03-18T10:59:44;100357.03;;;1.84;63.42
59168;BME280;44948;55.046;73.266;2023-03-18T11:02:48;100354.50;;;1.83;63.33
59168;BME280;44948;55.046;73.266;2023-03-18T11:05:52;100354.56;;;1.81;63.44
59168;BME280;44948;55.046;73.266;2023-03-18T11:09:09;100341.72;;;1.78;63.30
59168;BME280;44948;55.046;73.266;2023-03-18T11:12:22;100348.13;;;1.93;63.47
59168;BME280;44948;55.046;73.266;2023-03-18T11:15:25;100329.84;;;1.97;62.93
59168;BME280;44948;55.046;73.266;2023-03-18T11:18:28;100298.13;;;1.67;63.18
59168;BME280;44948;55.046;73.266;2023-03-18T11:21:34;100330.28;;;1.85;63.88
59168;BME280;44948;55.046;73.266;2023-03-18T11:25:15;100314.72;;;1.87;63.11
59168;BME280;44948;55.046;73.266;2023-03-18T11:28:21;100309.88;;;2.03;63.44
59168;BME280;44948;55.046;73.266;2023-03-18T11:31:27;100252.97;;;1.78;63.58
59168;BME280;44948;55.046;73.266;2023-03-18T11:34:31;100280.28;;;1.85;63.63
59168;BME280;44948;55.046;73.266;2023-03-18T11:37:39;100298.25;;;1.89;63.65
59168;BME280;44948;55.046;73.266;2023-03-18T11:40:42;100293.41;;;2.05;63.85
59168;BME280;44948;55.046;73.266;2023-03-18T11:44:04;100293.56;;;2.24;63.54
59168;BME280;44948;55.046;73.266;2023-03-18T11:47:28;100285.69;;;2.04;63.43
59168;BME280;44948;55.046;73.266;2023-03-18T11:50:40;100296.34;;;1.94;63.70
59168;BME280;44948;55.046;73.266;2023-03-18T11:57:07;100277.72;;;1.60;64.72
59168;BME280;44948;55.046;73.266;2023-03-18T12:03:56;100278.03;;;1.24;65.75
59168;BME280;44948;55.046;73.266;2023-03-18T12:10:23;100280.47;;;1.29;66.31
59168;BME280;44948;55.046;73.266;2023-03-18T12:17:05;100262.53;;;1.24;66.73
59168;BME280;44948;55.046;73.266;2023-03-18T12:20:36;100266.47;;;1.09;67.54
59168;BME280;44948;55.046;73.266;2023-03-18T12:33:58;100237.19;;;1.09;67.84
59168;BME280;44948;55.046;73.266;2023-03-18T12:37:09;100266.88;;;1.24;67.91
59168;BME280;44948;55.046;73.266;2023-03-18T12:40:24;100262.47;;;1.26;68.41
59168;BME280;44948;55.046;73.266;2023-03-18T12:47:25;100229.38;;;0.84;68.79
59168;BME280;44948;55.046;73.266;2023-03-18T12:50:43;100226.78;;;0.84;69.58
59168;BME280;44948;55.046;73.266;2023-03-18T12:53:56;100233.75;;;0.82;69.48
59168;BME280;44948;55.046;73.266;2023-03-18T12:57:31;100245.22;;;0.73;70.21
59168;BME280;44948;55.046;73.266;2023-03-18T13:00:53;100235.84;;;0.71;70.45
59168;BME280;44948;55.046;73.266;2023-03-18T13:04:03;100245.28;;;0.72;70.37
59168;BME280;44948;55.046;73.266;2023-03-18T13:07:19;100240.47;;;0.60;70.68
59168;BME280;44948;55.046;73.266;2023-03-18T13:10:30;100242.47;;;0.52;71.22
59168;BME280;44948;55.046;73.266;2023-03-18T13:13:38;100227.09;;;0.47;71.23
59168;BME280;44948;55.046;73.266;2023-03-18T13:16:46;100235.81;;;0.43;71.55
59168;BME280;44948;55.046;73.266;2023-03-18T13:19:50;100234.31;;;0.36;71.61
59168;BME280;44948;55.046;73.266;2023-03-18T13:26:42;100234.81;;;0.19;72.06
59168;BME280;44948;55.046;73.266;2023-03-18T13:30:12;100241.88;;;0.12;72.30
59168;BME280;44948;55.046;73.266;2023-03-18T13:33:44;100233.41;;;0.07;72.67
59168;BME280;44948;55.046;73.266;2023-03-18T13:44:34;100255.28;;;-0.06;73.54
59168;BME280;44948;55.046;73.266;2023-03-18T13:47:39;100234.66;;;-0.06;73.57
59168;BME280;44948;55.046;73.266;2023-03-18T13:50:45;100251.75;;;-0.03;73.91
59168;BME280;44948;55.046;73.266;2023-03-18T13:53:57;100245.91;;;-0.08;74.10
59168;BME280;44948;55.046;73.266;2023-03-18T14:00:33;100240.22;;;-0.21;74.48
59168;BME280;44948;55.046;73.266;2023-03-18T14:07:19;100236.13;;;-0.28;74.50
59168;BME280;44948;55.046;73.266;2023-03-18T14:10:23;100240.41;;;-0.27;74.93
59168;BME280;44948;55.046;73.266;2023-03-18T14:13:26;100235.25;;;-0.27;75.21
59168;BME280;44948;55.046;73.266;2023-03-18T14:19:53;100234.59;;;-0.35;75.35
59168;BME280;44948;55.046;73.266;2023-03-18T14:26:37;100222.75;;;-0.43;75.93
59168;BME280;44948;55.046;73.266;2023-03-18T14:29:42;100234.84;;;-0.45;75.97
59168;BME280;44948;55.046;73.266;2023-03-18T14:33:00;100229.91;;;-0.54;75.98
59168;BME280;44948;55.046;73.266;2023-03-18T14:36:07;100231.69;;;-0.56;76.39
59168;BME280;44948;55.046;73.266;2023-03-18T14:39:43;100219.31;;;-0.76;76.59
59168;BME280;44948;55.046;73.266;2023-03-18T14:42:59;100235.47;;;-0.69;76.70
59168;BME280;44948;55.046;73.266;2023-03-18T14:46:06;100237.97;;;-0.66;76.93
59168;BME280;44948;55.046;73.266;2023-03-18T14:52:44;100226.03;;;-0.70;77.22
59168;BME280;44948;55.046;73.266;2023-03-18T14:55:51;100220.25;;;-0.78;77.32
59168;BME280;44948;55.046;73.266;2023-03-18T14:58:54;100216.03;;;-0.81;77.34
59168;BME280;44948;55.046;73.266;2023-03-18T15:01:57;100220.34;;;-0.81;77.43
59168;BME280;44948;55.046;73.266;2023-03-18T15:05:00;100211.88;;;-0.86;77.42
59168;BME280;44948;55.046;73.266;2023-03-18T15:08:12;100211.34;;;-0.99;77.61
59168;BME280;44948;55.046;73.266;2023-03-18T15:11:18;100206.31;;;-1.05;77.38
59168;BME280;44948;55.046;73.266;2023-03-18T15:14:28;100211.34;;;-0.99;77.21
59168;BME280;44948;55.046;73.266;2023-03-18T15:17:35;100202.94;;;-1.07;77.72
59168;BME280;44948;55.046;73.266;2023-03-18T15:20:44;100217.38;;;-1.02;77.39
59168;BME280;44948;55.046;73.266;2023-03-18T15:23:57;100212.34;;;-1.06;77.68
59168;BME280;44948;55.046;73.266;2023-03-18T15:27:05;100220.97;;;-1.07;77.29
59168;BME280;44948;55.046;73.266;2023-03-18T15:30:40;100219.59;;;-1.22;77.00
59168;BME280;44948;55.046;73.266;2023-03-18T15:34:05;100218.72;;;-1.21;77.54
59168;BME280;44948;55.046;73.266;2023-03-18T15:40:54;100203.59;;;-1.35;77.11
59168;BME280;44948;55.046;73.266;2023-03-18T15:43:57;100210.31;;;-1.27;77.34
59168;BME280;44948;55.046;73.266;2023-03-18T15:47:26;100196.03;;;-1.41;77.53
59168;BME280;44948;55.046;73.266;2023-03-18T15:50:30;100206.00;;;-1.27;77.37
59168;BME280;44948;55.046;73.266;2023-03-18T15:53:43;100205.28;;;-1.32;77.35
59168;BME280;44948;55.046;73.266;2023-03-18T15:56:49;100206.16;;;-1.33;77.46
59168;BME280;44948;55.046;73.266;2023-03-18T15:59:59;100186.84;;;-1.52;77.77
59168;BME280;44948;55.046;73.266;2023-03-18T16:03:24;100210.72;;;-1.46;77.38
59168;BME280;44948;55.046;73.266;2023-03-18T16:06:27;100209.72;;;-1.40;77.57
59168;BME280;44948;55.046;73.266;2023-03-18T16:09:29;100181.78;;;-1.55;77.31
59168;BME280;44948;55.046;73.266;2023-03-18T16:12:50;100195.41;;;-1.50;77.80
59168;BME280;44948;55.046;73.266;2023-03-18T16:15:58;100191.34;;;-1.61;77.68
59168;BME280;44948;55.046;73.266;2023-03-18T16:19:21;100192.44;;;-1.72;77.13
59168;BME280;44948;55.046;73.266;2023-03-18T16:22:31;100210.28;;;-1.65;77.77
59168;BME280;44948;55.046;73.266;2023-03-18T16:25:35;100196.81;;;-1.76;77.83
59168;BME280;44948;55.046;73.266;2023-03-18T16:28:37;100209.69;;;-1.77;78.26
59168;BME280;44948;55.046;73.266;2023-03-18T16:31:40;100214.19;;;-1.87;78.34
59168;BME280;44948;55.046;73.266;2023-03-18T16:34:42;100209.25;;;-1.96;78.40
59168;BME280;44948;55.046;73.266;2023-03-18T16:37:47;100211.81;;;-1.96;78.43
59168;BME280;44948;55.046;73.266;2023-03-18T16:40:50;100196.00;;;-2.19;78.42
59168;BME280;44948;55.046;73.266;2023-03-18T16:43:53;100209.78;;;-2.24;78.56
59168;BME280;44948;55.046;73.266;2023-03-18T16:46:55;100220.00;;;-2.21;78.64
59168;BME280;44948;55.046;73.266;2023-03-18T16:50:13;100208.22;;;-2.31;78.91
59168;BME280;44948;55.046;73.266;2023-03-18T16:53:23;100209.06;;;-2.30;78.58
59168;BME280;44948;55.046;73.266;2023-03-18T16:56:26;100202.28;;;-2.33;78.76
59168;BME280;44948;55.046;73.266;2023-03-18T16:59:33;100219.16;;;-2.21;78.60
59168;BME280;44948;55.046;73.266;2023-03-18T17:02:50;100206.44;;;-2.27;78.75
59168;BME280;44948;55.046;73.266;2023-03-18T17:05:56;100197.94;;;-2.31;78.32
59168;BME280;44948;55.046;73.266;2023-03-18T17:08:59;100206.28;;;-2.19;78.38
59168;BME280;44948;55.046;73.266;2023-03-18T17:12:05;100197.03;;;-2.28;78.63
59168;BME280;44948;55.046;73.266;2023-03-18T17:15:10;100227.50;;;-2.10;78.08
59168;BME280;44948;55.046;73.266;2023-03-18T17:18:18;100223.22;;;-2.09;78.31
59168;BME280;44948;55.046;73.266;2023-03-18T17:21:20;100206.06;;;-2.09;78.55
59168;BME280;44948;55.046;73.266;2023-03-18T17:24:23;100230.03;;;-2.08;78.42
59168;BME280;44948;55.046;73.266;2023-03-18T17:27:32;100224.97;;;-2.11;78.45
59168;BME280;44948;55.046;73.266;2023-03-18T17:30:37;100215.47;;;-2.08;78.37
59168;BME280;44948;55.046;73.266;2023-03-18T17:33:40;100222.22;;;-2.04;78.46
59168;BME280;44948;55.046;73.266;2023-03-18T17:36:43;100225.53;;;-1.97;78.46
59168;BME280;44948;55.046;73.266;2023-03-18T17:39:50;100210.06;;;-1.94;78.46
59168;BME280;44948;55.046;73.266;2023-03-18T17:42:52;100210.69;;;-1.83;78.60
59168;BME280;44948;55.046;73.266;2023-03-18T17:46:00;100214.63;;;-1.68;78.61
59168;BME280;44948;55.046;73.266;2023-03-18T17:49:09;100208.41;;;-1.58;78.75
59168;BME280;44948;55.046;73.266;2023-03-18T17:52:18;100200.16;;;-1.35;80.03